Time;durP1;ratioP1;P1;durP2;ratioP2;P2;SDS_P1;SDS_P2;PMS_P1;PMS_P2;Temp;Humidity;BMP_temperature;BMP_pressure;BME280_temperature;BME280_humidity;BME280_pressure;Samples;Min_cycle;Max_cycle;Signal;HPM_P1;HPM_P2
2023/04/02 00:00:23;;;;;;;4.90;4.47;;;13.80;48.80;;;;;;5034466;28;20174;-51
2023/04/02 00:02:55;;;;;;;5.95;4.40;;;13.80;48.70;;;;;;5034217;28;20162;-51
2023/04/02 00:05:30;;;;;;;4.32;3.90;;;13.80;48.90;;;;;;5034329;28;20252;-50
2023/04/02 00:08:02;;;;;;;3.90;3.50;;;13.80;48.70;;;;;;5034177;28;20197;-50
2023/04/02 00:10:38;;;;;;;5.15;4.65;;;13.80;48.60;;;;;;5034628;28;20178;-51
2023/04/02 00:13:10;;;;;;;4.20;3.80;;;13.80;48.70;;;;;;5033965;28;20176;-52
2023/04/02 00:15:42;;;;;;;4.38;3.97;;;13.80;48.80;;;;;;5034120;28;20243;-51
2023/04/02 00:18:13;;;;;;;5.05;3.40;;;13.70;48.60;;;;;;5033941;28;20233;-53
2023/04/02 00:20:42;;;;;;;4.63;3.67;;;13.80;48.80;;;;;;5034146;28;20174;-51
2023/04/02 00:23:12;;;;;;;4.10;2.70;;;13.70;48.40;;;;;;5034023;28;20232;-50
2023/04/02 00:25:41;;;;;;;3.47;3.00;;;13.70;48.20;;;;;;5034126;28;20277;-50
2023/04/02 00:28:20;;;;;;;3.53;3.15;;;13.60;48.20;;;;;;5033922;28;20221;-52
2023/04/02 00:30:58;;;;;;;3.70;3.40;;;13.60;48.30;;;;;;5034033;28;20224;-50
2023/04/02 00:33:27;;;;;;;3.45;3.05;;;13.50;48.30;;;;;;5033689;28;20174;-50
2023/04/02 00:35:54;;;;;;;3.15;2.85;;;13.50;48.40;;;;;;5033830;28;20224;-50
2023/04/02 00:38:31;;;;;;;5.22;3.80;;;13.50;48.40;;;;;;5033718;28;20198;-51
2023/04/02 00:41:06;;;;;;;4.82;4.00;;;13.50;48.00;;;;;;5033702;28;20185;-52
2023/04/02 00:43:38;;;;;;;4.30;3.83;;;13.40;48.00;;;;;;5033588;28;20244;-51
2023/04/02 00:46:13;;;;;;;5.28;3.78;;;13.40;47.90;;;;;;5033817;28;20186;-51
2023/04/02 00:48:47;;;;;;;4.20;3.10;;;13.30;47.70;;;;;;5033625;28;20193;-53
2023/04/02 00:51:28;;;;;;;4.28;3.45;;;13.20;47.90;;;;;;5033554;28;20185;-50
2023/04/02 00:53:59;;;;;;;4.25;3.63;;;13.20;48.00;;;;;;5033388;28;20170;-52
2023/04/02 00:56:39;;;;;;;3.65;3.35;;;13.10;48.10;;;;;;5033592;28;20233;-51
2023/04/02 00:59:18;;;;;;;4.18;3.13;;;13.10;48.00;;;;;;5032240;28;20624;-53
2023/04/02 01:01:44;;;;;;;3.83;3.20;;;13.00;48.00;;;;;;5033229;28;20200;-52
2023/04/02 01:04:30;;;;;;;3.87;3.47;;;13.00;48.00;;;;;;5033047;28;20178;-50
2023/04/02 01:06:57;;;;;;;5.40;4.07;;;13.10;47.80;;;;;;5032692;28;20181;-51
2023/04/02 01:09:52;;;;;;;4.28;3.85;;;13.00;47.60;;;;;;5032328;28;20201;-52
2023/04/02 01:12:20;;;;;;;6.45;4.45;;;13.00;47.60;;;;;;5032929;28;20169;-51
2023/04/02 01:15:04;;;;;;;6.15;5.05;;;12.90;47.60;;;;;;5033219;28;20201;-52
2023/04/02 01:17:48;;;;;;;8.13;3.90;;;12.80;47.60;;;;;;5033092;28;20170;-50
2023/04/02 01:20:32;;;;;;;6.78;5.10;;;12.80;47.30;;;;;;5033008;28;20181;-52
2023/04/02 01:23:06;;;;;;;4.70;4.10;;;12.70;47.30;;;;;;5032709;28;20178;-52
2023/04/02 01:25:47;;;;;;;4.97;4.18;;;12.60;47.60;;;;;;5032915;28;20185;-52
2023/04/02 01:28:26;;;;;;;6.55;5.03;;;12.50;47.80;;;;;;5032698;28;20217;-52
2023/04/02 01:30:55;;;;;;;5.78;5.03;;;12.50;48.50;;;;;;5032808;28;20181;-52
2023/04/02 01:33:23;;;;;;;5.22;4.15;;;12.50;48.00;;;;;;5032559;28;20649;-53
2023/04/02 01:36:04;;;;;;;5.30;3.75;;;12.50;48.10;;;;;;5032642;28;20662;-50
2023/04/02 01:38:38;;;;;;;5.13;3.55;;;12.50;48.00;;;;;;5032643;28;20784;-52
2023/04/02 01:41:26;;;;;;;6.07;4.55;;;12.50;47.90;;;;;;5032777;28;20584;-52
2023/04/02 01:44:01;;;;;;;4.35;3.95;;;12.50;47.70;;;;;;5032437;28;20660;-49
2023/04/02 01:46:32;;;;;;;5.20;4.10;;;12.50;47.70;;;;;;5032538;28;20184;-50
2023/04/02 01:49:10;;;;;;;4.72;4.32;;;12.40;47.70;;;;;;5032483;28;20527;-53
2023/04/02 01:51:42;;;;;;;5.45;4.63;;;12.40;47.60;;;;;;5032482;28;20173;-50
2023/04/02 01:54:08;;;;;;;4.63;3.67;;;12.30;47.30;;;;;;5032441;28;20545;-49
2023/04/02 01:56:35;;;;;;;5.70;4.57;;;12.30;47.60;;;;;;5032380;28;20178;-52
2023/04/02 01:59:04;;;;;;;4.47;3.72;;;12.20;47.30;;;;;;5032370;28;20214;-51
2023/04/02 02:02:04;;;;;;;4.95;3.50;;;12.20;47.40;;;;;;5031185;28;20162;-50
2023/04/02 02:04:31;;;;;;;4.72;4.28;;;12.20;47.20;;;;;;5032241;28;20264;-50
2023/04/02 02:07:01;;;;;;;4.47;3.70;;;12.10;47.40;;;;;;5032214;28;20700;-51
2023/04/02 02:09:29;;;;;;;4.47;3.60;;;12.00;47.60;;;;;;5032059;28;20289;-51
2023/04/02 02:12:00;;;;;;;3.80;3.47;;;12.10;47.30;;;;;;5031903;28;20174;-51
2023/04/02 02:14:28;;;;;;;4.38;3.97;;;12.00;47.30;;;;;;5032096;28;20183;-50
2023/04/02 02:16:56;;;;;;;4.22;3.83;;;12.00;47.40;;;;;;5032045;28;20170;-52
2023/04/02 02:19:35;;;;;;;3.42;3.00;;;12.00;47.30;;;;;;5032070;28;20190;-50
2023/04/02 02:22:13;;;;;;;5.25;3.80;;;12.00;47.10;;;;;;5031962;28;20284;-53
2023/04/02 02:24:40;;;;;;;3.75;3.45;;;12.10;46.90;;;;;;5032083;28;20173;-50
2023/04/02 02:27:29;;;;;;;4.35;3.75;;;12.00;46.80;;;;;;5031958;28;20186;-53
2023/04/02 02:30:27;;;;;;;2.67;2.47;;;12.00;46.90;;;;;;5031893;28;20181;-53
2023/04/02 02:33:20;;;;;;;4.03;3.00;;;11.90;46.60;;;;;;5031831;28;20190;-51
2023/04/02 02:36:05;;;;;;;2.78;2.33;;;11.90;46.60;;;;;;5032064;28;20208;-53
2023/04/02 02:38:33;;;;;;;2.50;2.30;;;11.90;46.60;;;;;;5032069;28;20240;-50
2023/04/02 02:41:34;;;;;;;3.92;2.83;;;11.80;46.60;;;;;;5031697;28;20174;-50
2023/04/02 02:44:12;;;;;;;2.45;2.25;;;11.80;46.60;;;;;;5032145;28;20165;-50
2023/04/02 02:46:52;;;;;;;2.60;2.28;;;11.70;46.70;;;;;;5031918;28;20176;-53
2023/04/02 02:49:24;;;;;;;5.30;2.60;;;11.80;46.90;;;;;;5031772;28;20190;-53
2023/04/02 02:52:17;;;;;;;2.10;1.90;;;11.80;46.80;;;;;;5031524;28;20265;-51
2023/04/02 02:54:48;;;;;;;2.60;2.40;;;11.80;46.50;;;;;;5031079;28;20272;-51
2023/04/02 02:57:20;;;;;;;2.72;2.47;;;11.80;46.30;;;;;;5031853;28;20668;-51
2023/04/02 02:59:46;;;;;;;1.95;1.75;;;11.70;46.30;;;;;;5031730;28;20174;-51
2023/04/02 03:02:15;;;;;;;3.00;2.30;;;11.70;46.50;;;;;;5031528;28;20265;-51
2023/04/02 03:04:45;;;;;;;2.85;2.55;;;11.70;46.80;;;;;;5031642;28;20231;-51
2023/04/02 03:07:15;;;;;;;2.40;2.20;;;11.70;46.40;;;;;;5031698;28;20185;-51
2023/04/02 03:09:56;;;;;;;3.47;2.50;;;11.70;46.50;;;;;;5031634;28;20285;-51
2023/04/02 03:12:35;;;;;;;2.42;1.92;;;11.60;46.20;;;;;;5031477;28;20178;-51
2023/04/02 03:15:12;;;;;;;2.38;2.17;;;11.60;46.20;;;;;;5031424;28;20213;-51
2023/04/02 03:17:54;;;;;;;1.90;1.70;;;11.60;46.30;;;;;;5031636;28;20200;-50
2023/04/02 03:20:38;;;;;;;1.75;1.20;;;11.50;46.50;;;;;;5031686;28;20170;-51
2023/04/02 03:23:24;;;;;;;2.42;1.73;;;11.50;46.20;;;;;;5031322;28;20585;-51
2023/04/02 03:26:21;;;;;;;1.90;1.60;;;11.40;46.10;;;;;;5031560;28;20174;-51
2023/04/02 03:28:57;;;;;;;2.08;1.73;;;11.40;46.30;;;;;;5031231;28;20728;-50
2023/04/02 03:31:55;;;;;;;2.15;1.50;;;11.30;46.40;;;;;;5031314;28;20178;-51
2023/04/02 03:34:28;;;;;;;2.78;2.17;;;11.30;46.20;;;;;;5034768;28;20206;-51
2023/04/02 03:36:59;;;;;;;3.17;2.15;;;11.30;46.50;;;;;;5034918;28;20178;-51
2023/04/02 03:40:03;;;;;;;1.85;1.60;;;11.30;46.70;;;;;;5034750;28;20280;-51
2023/04/02 03:42:43;;;;;;;2.42;2.03;;;11.30;46.60;;;;;;5034412;28;20190;-51
2023/04/02 03:45:16;;;;;;;3.53;2.72;;;11.40;46.10;;;;;;5034426;28;20178;-51
2023/04/02 03:47:51;;;;;;;2.83;2.13;;;11.40;46.20;;;;;;5034591;28;20194;-51
2023/04/02 03:50:30;;;;;;;3.00;2.70;;;11.40;46.00;;;;;;5034529;28;20653;-51
2023/04/02 03:52:57;;;;;;;2.97;2.30;;;11.40;45.60;;;;;;5034461;28;20177;-51
2023/04/02 03:55:31;;;;;;;2.80;2.20;;;11.30;45.60;;;;;;5034348;28;20214;-51
2023/04/02 03:57:59;;;;;;;2.60;2.20;;;11.30;45.70;;;;;;5034138;28;20205;-51
2023/04/02 04:00:37;;;;;;;2.40;2.20;;;11.30;46.00;;;;;;5034249;28;20253;-51
2023/04/02 04:03:29;;;;;;;2.70;2.30;;;11.30;45.80;;;;;;5033868;28;20177;-50
2023/04/02 04:06:00;;;;;;;2.40;2.10;;;11.30;46.00;;;;;;5021160;28;20213;-51
2023/04/02 04:08:41;;;;;;;3.30;2.70;;;11.30;46.10;;;;;;5034399;28;20217;-51
2023/04/02 04:11:12;;;;;;;2.30;2.00;;;11.20;45.60;;;;;;5034078;28;20232;-51
2023/04/02 04:13:57;;;;;;;3.08;2.63;;;11.30;45.70;;;;;;5033708;28;20668;-51
2023/04/02 04:16:39;;;;;;;3.17;2.67;;;11.20;45.50;;;;;;5034321;28;20267;-51
2023/04/02 04:19:16;;;;;;;3.53;2.40;;;11.20;45.40;;;;;;5034133;28;20182;-51
2023/04/02 04:21:44;;;;;;;6.75;2.92;;;11.10;45.50;;;;;;5034023;28;20202;-51
2023/04/02 04:24:20;;;;;;;3.97;3.35;;;11.10;45.80;;;;;;5034177;28;20235;-51
2023/04/02 04:27:37;;;;;;;5.03;4.63;;;11.10;45.70;;;;;;5034177;28;20174;-51
2023/04/02 04:30:13;;;;;;;4.90;4.47;;;11.10;45.70;;;;;;5013116;28;20255;-50
2023/04/02 04:33:02;;;;;;;4.75;4.25;;;11.10;45.80;;;;;;5033619;28;20170;-51
2023/04/02 04:35:38;;;;;;;4.50;4.10;;;11.10;45.20;;;;;;5033977;28;20613;-50
2023/04/02 04:38:14;;;;;;;4.15;3.70;;;10.90;45.50;;;;;;5033846;28;20272;-51
2023/04/02 04:40:52;;;;;;;5.72;4.65;;;10.90;45.60;;;;;;5033970;28;20181;-51
2023/04/02 04:43:43;;;;;;;4.30;3.63;;;10.80;45.60;;;;;;5033089;28;20174;-50
2023/04/02 04:46:15;;;;;;;4.10;3.72;;;10.80;46.30;;;;;;5033117;28;20660;-51
2023/04/02 04:49:03;;;;;;;4.70;4.28;;;10.60;45.70;;;;;;5033161;28;20198;-51
2023/04/02 04:51:46;;;;;;;4.60;4.15;;;10.70;45.80;;;;;;5033634;28;20170;-51
2023/04/02 04:54:13;;;;;;;3.90;3.42;;;10.60;45.70;;;;;;5033474;28;20590;-51
2023/04/02 04:56:43;;;;;;;6.35;3.72;;;10.50;45.70;;;;;;5033500;28;20284;-51
2023/04/02 04:59:22;;;;;;;4.78;4.05;;;10.50;46.50;;;;;;5033028;28;20194;-51
2023/04/02 05:02:11;;;;;;;4.65;4.22;;;10.40;45.90;;;;;;5033066;28;20174;-50
2023/04/02 05:04:42;;;;;;;4.32;3.78;;;10.40;45.80;;;;;;5033372;28;20650;-51
2023/04/02 05:07:16;;;;;;;3.85;3.42;;;10.30;45.80;;;;;;5032017;28;20181;-53
2023/04/02 05:10:02;;;;;;;6.00;4.43;;;10.30;46.00;;;;;;5032934;28;20213;-51
2023/04/02 05:12:53;;;;;;;4.28;3.53;;;10.30;46.10;;;;;;5032922;28;20610;-52
2023/04/02 05:15:52;;;;;;;5.25;4.30;;;10.30;46.20;;;;;;5032708;28;20197;-50
2023/04/02 05:18:33;;;;;;;5.40;3.30;;;10.30;46.20;;;;;;5032689;28;20270;-51
2023/04/02 05:20:58;;;;;;;5.55;4.45;;;10.30;46.20;;;;;;5032745;28;20684;-53
2023/04/02 05:23:43;;;;;;;5.13;4.50;;;10.20;46.00;;;;;;5032488;28;20178;-51
2023/04/02 05:26:33;;;;;;;5.00;4.60;;;10.20;45.90;;;;;;5032728;28;20560;-53
2023/04/02 05:29:07;;;;;;;6.15;5.28;;;10.30;46.10;;;;;;5015055;28;20224;-52
2023/04/02 05:31:45;;;;;;;5.93;4.57;;;10.30;46.10;;;;;;5032667;28;20166;-50
2023/04/02 05:34:12;;;;;;;5.07;4.50;;;10.30;45.70;;;;;;5032615;28;20657;-52
2023/04/02 05:36:38;;;;;;;5.15;4.65;;;10.30;45.80;;;;;;5031355;28;20580;-52
2023/04/02 05:39:09;;;;;;;5.43;4.93;;;10.20;45.80;;;;;;5032549;28;20190;-50
2023/04/02 05:41:44;;;;;;;6.30;5.35;;;10.20;45.80;;;;;;5032590;28;20654;-53
2023/04/02 05:44:36;;;;;;;7.72;5.53;;;10.20;45.90;;;;;;5032371;28;20173;-52
2023/04/02 05:47:16;;;;;;;4.90;3.63;;;10.20;45.60;;;;;;5021072;28;20181;-51
2023/04/02 05:49:46;;;;;;;5.47;4.85;;;10.20;45.60;;;;;;5032356;28;20193;-50
2023/04/02 05:52:22;;;;;;;5.35;4.82;;;10.10;45.70;;;;;;5030953;28;20232;-53
2023/04/02 05:55:08;;;;;;;5.38;4.93;;;10.20;45.80;;;;;;5032237;28;20616;-51
2023/04/02 05:57:40;;;;;;;6.13;5.53;;;10.10;45.70;;;;;;5032276;28;20192;-51
2023/04/02 06:00:17;;;;;;;6.40;5.18;;;10.10;46.00;;;;;;5032464;28;20273;-51
2023/04/02 06:03:06;;;;;;;5.10;4.35;;;10.20;45.80;;;;;;5032183;28;20511;-53
2023/04/02 06:05:42;;;;;;;4.93;4.53;;;10.20;45.40;;;;;;5032349;28;20177;-51
2023/04/02 06:08:15;;;;;;;6.50;4.00;;;10.20;45.40;;;;;;5032114;28;20209;-53
2023/04/02 06:11:11;;;;;;;5.30;4.80;;;10.10;45.40;;;;;;5032171;28;20290;-51
2023/04/02 06:13:37;;;;;;;7.13;6.43;;;10.10;45.30;;;;;;5018741;28;20549;-51
2023/04/02 06:16:03;;;;;;;7.65;6.00;;;10.00;45.30;;;;;;5031952;28;20204;-53
2023/04/02 06:18:36;;;;;;;6.57;5.73;;;9.90;45.50;;;;;;5031956;28;20186;-50
2023/04/02 06:21:02;;;;;;;7.43;5.78;;;9.80;45.40;;;;;;5032233;28;20462;-50
2023/04/02 06:23:59;;;;;;;6.80;6.07;;;9.80;45.60;;;;;;5031754;28;20170;-53
2023/04/02 06:26:43;;;;;;;5.60;4.55;;;9.80;45.40;;;;;;5031906;28;20189;-51
2023/04/02 06:29:37;;;;;;;5.25;4.45;;;9.80;45.50;;;;;;5031840;28;20213;-53
2023/04/02 06:32:08;;;;;;;5.65;4.55;;;9.80;45.60;;;;;;5031805;28;20676;-51
2023/04/02 06:34:38;;;;;;;5.50;4.88;;;9.80;45.70;;;;;;5031944;28;20184;-52
2023/04/02 06:37:20;;;;;;;5.05;3.38;;;9.70;46.00;;;;;;5031782;28;20170;-50
2023/04/02 06:39:46;;;;;;;5.60;3.42;;;9.80;45.80;;;;;;5031836;28;20190;-53
2023/04/02 06:42:34;;;;;;;3.90;3.47;;;9.80;45.60;;;;;;5031793;28;20169;-51
2023/04/02 06:45:00;;;;;;;5.15;4.63;;;9.90;45.30;;;;;;5031981;28;20503;-52
2023/04/02 06:47:26;;;;;;;4.43;3.10;;;9.90;45.30;;;;;;5031721;28;20185;-50
2023/04/02 06:50:10;;;;;;;4.30;3.70;;;9.80;45.30;;;;;;5031944;28;20182;-53
2023/04/02 06:52:52;;;;;;;5.28;4.13;;;9.90;45.00;;;;;;5031461;28;20444;-51
2023/04/02 06:55:36;;;;;;;4.78;3.20;;;9.90;44.70;;;;;;5031759;28;20193;-52
2023/04/02 06:58:02;;;;;;;3.28;2.95;;;9.80;45.00;;;;;;5031555;28;20273;-52
2023/04/02 07:00:42;;;;;;;5.30;3.10;;;9.80;44.90;;;;;;5031675;28;20257;-49
2023/04/02 07:03:22;;;;;;;3.83;3.30;;;9.80;44.80;;;;;;5031632;28;20412;-50
2023/04/02 07:05:48;;;;;;;4.15;3.45;;;9.80;44.90;;;;;;5030191;28;20260;-52
2023/04/02 07:08:14;;;;;;;7.33;4.47;;;9.80;44.90;;;;;;5033301;28;20281;-50
2023/04/02 07:10:40;;;;;;;5.83;5.23;;;9.70;44.60;;;;;;5035017;28;20437;-53
2023/04/02 07:13:05;;;;;;;3.80;3.20;;;9.70;44.60;;;;;;5035206;28;20496;-51
2023/04/02 07:15:31;;;;;;;7.73;4.70;;;9.70;44.80;;;;;;5035672;28;20455;-50
2023/04/02 07:17:58;;;;;;;5.83;4.00;;;9.60;44.90;;;;;;5035472;28;20646;-53
2023/04/02 07:20:37;;;;;;;6.07;3.97;;;9.60;45.20;;;;;;5035173;28;20483;-50
2023/04/02 07:23:03;;;;;;;7.38;4.20;;;9.60;45.00;;;;;;5034664;28;20173;-52
2023/04/02 07:25:29;;;;;;;4.20;3.40;;;9.60;45.00;;;;;;5035214;28;20231;-50
2023/04/02 07:27:55;;;;;;;5.85;3.75;;;9.60;45.10;;;;;;5034576;28;20221;-51
2023/04/02 07:30:21;;;;;;;7.43;4.60;;;9.60;45.00;;;;;;5035180;28;20170;-53
2023/04/02 07:32:47;;;;;;;4.80;3.77;;;9.60;45.00;;;;;;5034854;28;20174;-53
2023/04/02 07:35:13;;;;;;;4.90;4.03;;;9.50;45.20;;;;;;5034762;28;20220;-51
2023/04/02 07:37:39;;;;;;;4.25;3.78;;;9.60;45.00;;;;;;5034423;28;20404;-51
2023/04/02 07:40:24;;;;;;;6.60;3.63;;;9.60;45.00;;;;;;5028104;28;20179;-52
2023/04/02 07:42:50;;;;;;;4.03;2.92;;;9.60;44.60;;;;;;5034641;28;20217;-50
2023/04/02 07:45:16;;;;;;;4.80;3.97;;;9.60;44.40;;;;;;5035033;28;20204;-53
2023/04/02 07:47:42;;;;;;;3.83;3.43;;;9.50;44.40;;;;;;5034706;28;20425;-50
2023/04/02 07:50:09;;;;;;;4.72;3.22;;;9.50;44.70;;;;;;5034629;28;20257;-50
2023/04/02 07:52:42;;;;;;;7.97;2.85;;;9.60;44.80;;;;;;5034436;28;20196;-50
2023/04/02 07:55:13;;;;;;;4.32;3.80;;;9.60;44.70;;;;;;5034664;28;20193;-52
2023/04/02 07:57:42;;;;;;;5.07;2.95;;;9.60;44.70;;;;;;5034473;28;20200;-50
2023/04/02 08:00:10;;;;;;;5.38;4.25;;;9.60;44.90;;;;;;5034612;28;20525;-52
2023/04/02 08:02:36;;;;;;;5.72;3.78;;;9.70;45.00;;;;;;5034064;28;20296;-50
2023/04/02 08:05:02;;;;;;;5.80;3.47;;;9.70;44.80;;;;;;5034492;28;20260;-52
2023/04/02 08:07:28;;;;;;;4.73;3.53;;;9.70;44.80;;;;;;5034342;28;20427;-52
2023/04/02 08:09:54;;;;;;;6.13;3.70;;;9.80;44.50;;;;;;5034240;28;20408;-49
2023/04/02 08:12:19;;;;;;;5.20;4.70;;;9.80;44.00;;;;;;5034177;28;20235;-51
2023/04/02 08:14:45;;;;;;;10.47;5.70;;;9.80;43.80;;;;;;5034241;28;20279;-52
2023/04/02 08:17:11;;;;;;;6.63;4.70;;;9.90;44.00;;;;;;5034181;28;20404;-52
2023/04/02 08:19:37;;;;;;;6.50;5.90;;;9.90;43.50;;;;;;5048722;22;20249;-53
2023/04/02 08:22:03;;;;;;;4.88;4.35;;;9.90;43.50;;;;;;5033536;28;20232;-53
2023/04/02 08:24:28;;;;;;;5.20;4.70;;;9.90;43.40;;;;;;5034056;28;20186;-51
2023/04/02 08:26:54;;;;;;;6.90;5.57;;;9.90;43.40;;;;;;5034037;28;20591;-53
2023/04/02 08:29:20;;;;;;;4.30;3.80;;;9.90;43.30;;;;;;5034194;28;20201;-54
2023/04/02 08:31:46;;;;;;;6.10;3.92;;;10.00;42.70;;;;;;5033838;28;20170;-50
2023/04/02 08:34:12;;;;;;;4.90;4.40;;;10.00;42.40;;;;;;5033846;28;20708;-51
2023/04/02 08:36:42;;;;;;;5.40;4.60;;;9.90;42.10;;;;;;5033845;28;20201;-53
2023/04/02 08:39:10;;;;;;;4.97;4.50;;;9.90;41.80;;;;;;5033672;28;20873;-51
2023/04/02 08:42:02;;;;;;;4.97;3.85;;;9.80;42.10;;;;;;5034000;28;20174;-50
2023/04/02 08:44:55;;;;;;;5.40;4.90;;;9.90;42.10;;;;;;5033749;28;20185;-53
2023/04/02 08:47:24;;;;;;;4.65;4.25;;;9.90;42.10;;;;;;5033766;28;20651;-50
2023/04/02 08:49:57;;;;;;;4.32;3.33;;;9.90;42.20;;;;;;5033508;28;20205;-52
2023/04/02 08:52:31;;;;;;;3.97;3.30;;;9.90;41.30;;;;;;5033301;28;20253;-50
2023/04/02 08:54:59;;;;;;;7.75;5.22;;;9.80;41.50;;;;;;5033517;28;20182;-52
2023/04/02 08:57:30;;;;;;;3.67;3.00;;;9.90;40.80;;;;;;5033563;28;20525;-53
2023/04/02 09:00:19;;;;;;;7.10;5.45;;;9.90;40.80;;;;;;5033746;28;20553;-52
2023/04/02 09:03:16;;;;;;;4.15;3.85;;;9.90;40.80;;;;;;5033426;28;20173;-54
2023/04/02 09:05:44;;;;;;;4.80;4.30;;;9.90;41.10;;;;;;5021422;28;20186;-52
2023/04/02 09:08:24;;;;;;;5.40;3.45;;;9.90;40.90;;;;;;5033215;28;20188;-51
2023/04/02 09:11:12;;;;;;;3.83;3.00;;;9.90;41.20;;;;;;5033483;28;20215;-55
2023/04/02 09:13:45;;;;;;;4.65;4.18;;;9.90;41.30;;;;;;5032983;28;20236;-52
2023/04/02 09:16:13;;;;;;;4.85;3.42;;;10.00;40.70;;;;;;5033044;28;20642;-54
2023/04/02 09:18:40;;;;;;;3.08;2.88;;;10.00;40.80;;;;;;5032863;28;20551;-54
2023/04/02 09:21:21;;;;;;;3.83;3.22;;;10.00;40.30;;;;;;5033006;28;20660;-53
2023/04/02 09:23:48;;;;;;;3.42;3.08;;;10.00;40.20;;;;;;5032721;28;20210;-52
2023/04/02 09:26:33;;;;;;;3.25;2.95;;;10.00;40.20;;;;;;5033006;28;20224;-54
2023/04/02 09:29:26;;;;;;;4.78;3.33;;;9.90;40.50;;;;;;5032998;28;20279;-54
2023/04/02 09:32:21;;;;;;;3.40;3.10;;;9.90;40.80;;;;;;5032251;28;20223;-51
2023/04/02 09:34:46;;;;;;;3.33;2.45;;;9.80;40.90;;;;;;5021957;28;20212;-52
2023/04/02 09:37:18;;;;;;;4.60;3.10;;;9.80;41.10;;;;;;5032741;28;20173;-54
2023/04/02 09:39:44;;;;;;;3.40;2.92;;;9.80;41.00;;;;;;5032600;28;20252;-53
2023/04/02 09:42:46;;;;;;;5.30;3.80;;;9.80;41.10;;;;;;5032366;28;20170;-54
2023/04/02 09:45:13;;;;;;;3.67;2.92;;;9.80;40.90;;;;;;4971491;28;20182;-54
2023/04/02 09:47:40;;;;;;;3.55;2.67;;;9.80;41.20;;;;;;4971470;28;20275;-54
2023/04/02 09:50:32;;;;;;;4.35;3.95;;;9.80;41.10;;;;;;4971471;28;20211;-53
2023/04/02 09:53:15;;;;;;;8.45;4.95;;;9.80;41.10;;;;;;4970145;28;20652;-53
2023/04/02 09:55:41;;;;;;;3.75;2.55;;;9.80;41.00;;;;;;4971377;28;20579;-54
2023/04/02 09:58:15;;;;;;;4.13;3.60;;;9.70;40.90;;;;;;4971441;28;20172;-54
2023/04/02 10:00:52;;;;;;;4.78;4.15;;;9.70;40.90;;;;;;4971304;28;20187;-54
2023/04/02 10:03:24;;;;;;;3.50;3.20;;;9.70;41.00;;;;;;4971133;28;20164;-54
2023/04/02 10:06:11;;;;;;;4.25;3.20;;;9.80;41.00;;;;;;4971097;28;20187;-54
2023/04/02 10:08:39;;;;;;;3.90;3.22;;;9.80;40.90;;;;;;4971173;28;20200;-53
2023/04/02 10:11:15;;;;;;;4.18;3.47;;;9.80;40.80;;;;;;4971169;28;20266;-53
2023/04/02 10:13:58;;;;;;;3.83;3.42;;;9.80;40.80;;;;;;4970883;28;20658;-54
2023/04/02 10:16:31;;;;;;;4.00;2.78;;;9.80;40.80;;;;;;4971107;28;20206;-52
2023/04/02 10:19:51;;;;;;;4.47;2.90;;;9.80;41.20;;;;;;4996312;28;20562;-52
2023/04/02 10:22:19;;;;;;;3.55;2.38;;;9.80;41.10;;;;;;4970848;28;20175;-52
2023/04/02 10:24:46;;;;;;;3.55;2.83;;;9.80;40.80;;;;;;4970907;28;20171;-52
2023/04/02 10:27:28;;;;;;;3.15;2.78;;;9.80;40.60;;;;;;4970972;28;20172;-52
2023/04/02 10:30:26;;;;;;;4.90;2.60;;;9.90;40.90;;;;;;4970960;28;20209;-52
2023/04/02 10:32:58;;;;;;;3.95;2.65;;;9.90;40.70;;;;;;4970716;28;20257;-53
2023/04/02 10:35:45;;;;;;;3.35;2.42;;;9.90;41.00;;;;;;4970800;28;20199;-52
2023/04/02 10:38:29;;;;;;;5.35;2.40;;;10.00;40.80;;;;;;4970836;28;20625;-52
2023/04/02 10:41:00;;;;;;;5.85;3.15;;;10.00;40.40;;;;;;4970889;28;20695;-52
2023/04/02 10:43:54;;;;;;;4.35;3.40;;;10.00;40.20;;;;;;4972938;28;20210;-52
2023/04/02 10:46:42;;;;;;;8.10;4.70;;;10.00;40.40;;;;;;4974792;28;20186;-53
2023/04/02 10:49:33;;;;;;;5.55;3.08;;;10.10;40.00;;;;;;4974742;28;20215;-52
2023/04/02 10:52:13;;;;;;;4.78;2.50;;;10.10;40.60;;;;;;4974510;28;20584;-52
2023/04/02 10:54:49;;;;;;;4.10;3.20;;;10.10;40.00;;;;;;4974526;28;20179;-52
2023/04/02 10:57:30;;;;;;;5.03;3.20;;;10.10;39.90;;;;;;5029432;28;20242;-52
2023/04/02 11:00:11;;;;;;;5.22;2.92;;;10.10;39.70;;;;;;5035655;28;20189;-52
2023/04/02 11:02:55;;;;;;;4.78;3.42;;;10.10;39.90;;;;;;5035413;28;20237;-52
2023/04/02 11:05:42;;;;;;;6.15;4.07;;;10.20;39.80;;;;;;5035588;28;20253;-52
2023/04/02 11:08:17;;;;;;;6.97;4.35;;;10.10;39.80;;;;;;5035622;28;20181;-52
2023/04/02 11:10:54;;;;;;;4.95;4.38;;;10.10;40.00;;;;;;5035627;28;20252;-52
2023/04/02 11:13:32;;;;;;;12.05;10.70;;;10.20;40.00;;;;;;5035131;28;20197;-52
2023/04/02 11:15:58;;;;;;;5.43;4.88;;;10.20;40.20;;;;;;5035371;28;20612;-52
2023/04/02 11:18:34;;;;;;;6.90;6.20;;;10.30;40.20;;;;;;5035073;28;20588;-52
2023/04/02 11:21:29;;;;;;;7.57;5.72;;;10.30;40.20;;;;;;5035562;28;20431;-53
2023/04/02 11:24:00;;;;;;;5.90;4.50;;;10.30;40.00;;;;;;5027961;28;20231;-52
2023/04/02 11:26:46;;;;;;;5.75;4.72;;;10.30;40.20;;;;;;5035154;28;20174;-52
2023/04/02 11:29:27;;;;;;;8.00;4.30;;;10.40;39.80;;;;;;5034780;28;20198;-52
2023/04/02 11:32:28;;;;;;;6.55;5.53;;;10.50;39.80;;;;;;5034862;28;20232;-52
2023/04/02 11:34:54;;;;;;;7.18;3.47;;;10.50;40.00;;;;;;5024363;28;20205;-52
2023/04/02 11:37:44;;;;;;;8.47;3.93;;;10.50;40.00;;;;;;5034994;28;20174;-52
2023/04/02 11:40:10;;;;;;;9.23;3.92;;;10.60;39.90;;;;;;5034852;28;20435;-52
2023/04/02 11:42:44;;;;;;;6.60;3.60;;;10.60;40.00;;;;;;5034654;28;20541;-52
2023/04/02 11:45:20;;;;;;;6.10;4.03;;;10.60;39.70;;;;;;5034850;28;20657;-53
2023/04/02 11:48:01;;;;;;;6.35;4.60;;;10.60;39.80;;;;;;5034795;28;20184;-54
2023/04/02 11:50:31;;;;;;;4.45;3.33;;;10.70;39.80;;;;;;5034648;28;20581;-54
2023/04/02 11:53:15;;;;;;;4.13;2.80;;;10.70;39.60;;;;;;5033972;28;20252;-54
2023/04/02 11:55:42;;;;;;;5.45;2.97;;;10.60;38.90;;;;;;5034825;28;20228;-52
2023/04/02 11:58:26;;;;;;;4.05;3.45;;;10.60;38.80;;;;;;5034658;28;20216;-52
2023/04/02 12:01:22;;;;;;;3.78;2.75;;;10.50;39.30;;;;;;5034548;28;20177;-52
2023/04/02 12:04:09;;;;;;;5.18;3.08;;;10.60;38.80;;;;;;5034292;28;20172;-52
2023/04/02 12:07:09;;;;;;;4.38;3.75;;;10.50;39.00;;;;;;5034493;28;20169;-52
2023/04/02 12:09:50;;;;;;;3.97;3.10;;;10.60;39.20;;;;;;5034286;28;20206;-52
2023/04/02 12:12:31;;;;;;;5.70;3.63;;;10.60;39.00;;;;;;5034228;28;20154;-52
2023/04/02 12:14:58;;;;;;;3.85;3.30;;;10.70;39.40;;;;;;5034250;28;20196;-52
2023/04/02 12:17:39;;;;;;;3.40;2.63;;;10.70;38.90;;;;;;5034433;28;20557;-52
2023/04/02 12:20:12;;;;;;;5.57;3.45;;;10.70;38.70;;;;;;5033984;28;20233;-52
2023/04/02 12:22:44;;;;;;;5.05;3.50;;;10.70;38.60;;;;;;5033883;28;20181;-52
2023/04/02 12:25:28;;;;;;;3.88;2.47;;;10.80;38.80;;;;;;5034186;28;20216;-52
2023/04/02 12:28:09;;;;;;;5.43;4.00;;;10.90;39.20;;;;;;5032833;28;20158;-52
2023/04/02 12:30:37;;;;;;;6.50;4.10;;;10.90;39.30;;;;;;5034192;28;20166;-52
2023/04/02 12:33:21;;;;;;;3.42;3.13;;;11.10;38.90;;;;;;5033760;28;20216;-52
2023/04/02 12:35:49;;;;;;;3.08;2.78;;;11.10;37.80;;;;;;5033822;28;20554;-52
2023/04/02 12:38:31;;;;;;;6.60;3.85;;;11.10;37.90;;;;;;5033723;28;20668;-52
2023/04/02 12:41:02;;;;;;;3.83;2.90;;;11.20;38.70;;;;;;5033784;28;20212;-52
2023/04/02 12:43:30;;;;;;;5.30;3.75;;;11.30;38.20;;;;;;5033444;28;20174;-52
2023/04/02 12:46:03;;;;;;;4.25;3.65;;;11.30;37.60;;;;;;5033765;28;20170;-52
2023/04/02 12:48:30;;;;;;;5.30;3.65;;;11.40;37.90;;;;;;5033562;28;20192;-52
2023/04/02 12:50:57;;;;;;;5.05;4.50;;;11.40;37.40;;;;;;5033628;28;20224;-52
2023/04/02 12:53:35;;;;;;;3.45;3.15;;;11.40;37.20;;;;;;5033299;28;20178;-53
2023/04/02 12:56:01;;;;;;;3.17;2.55;;;11.40;37.20;;;;;;5033708;28;20210;-52
2023/04/02 12:58:39;;;;;;;5.07;3.15;;;11.40;37.30;;;;;;5033510;28;20170;-52
2023/04/02 13:01:14;;;;;;;2.90;2.60;;;11.40;37.30;;;;;;5033706;28;20162;-51
2023/04/02 13:03:40;;;;;;;5.45;2.95;;;11.50;37.70;;;;;;5033471;28;20232;-52
2023/04/02 13:06:23;;;;;;;5.60;3.42;;;11.60;37.70;;;;;;5032592;28;20523;-52
2023/04/02 13:08:50;;;;;;;6.05;2.83;;;11.60;37.50;;;;;;5033121;28;20335;-52
2023/04/02 13:11:16;;;;;;;3.95;3.03;;;11.70;36.80;;;;;;5033271;28;20186;-52
2023/04/02 13:13:44;;;;;;;4.38;2.20;;;11.70;36.70;;;;;;5032977;28;20174;-52
2023/04/02 13:16:16;;;;;;;3.58;2.47;;;11.70;36.70;;;;;;5033162;28;20202;-52
2023/04/02 13:18:44;;;;;;;6.30;2.75;;;11.60;36.40;;;;;;5032854;28;20294;-53
2023/04/02 13:21:17;;;;;;;3.40;2.78;;;11.50;36.30;;;;;;5033063;28;20185;-53
2023/04/02 13:23:44;;;;;;;3.95;2.40;;;11.50;36.50;;;;;;5032753;28;20170;-54
2023/04/02 13:26:17;;;;;;;6.50;2.70;;;11.30;36.30;;;;;;5033211;28;20556;-52
2023/04/02 13:29:23;;;;;;;3.00;2.38;;;11.30;36.40;;;;;;5032962;28;20190;-54
2023/04/02 13:31:50;;;;;;;4.53;2.78;;;11.20;36.40;;;;;;5019311;28;20212;-54
2023/04/02 13:34:17;;;;;;;3.17;2.10;;;11.10;36.40;;;;;;5032690;28;20185;-54
2023/04/02 13:36:43;;;;;;;3.25;2.30;;;11.10;36.40;;;;;;5032920;28;20251;-54